Bookmark and Share
Track history (hours):
 

Eyr Myken

Last reported at 2014-Apr-17 23:34 UTC. Time now 2014-Apr-18 00:27 UTC.
Position N 66°34' E 012°58'.

Length 18 m; draft 1.5 m.

Type: Medical transport. MMSI: 257054000.

NotesDate/timePositionNaut miles runAvg speedWind from/ knotsBaromVisibWave heightAir tempDewpointWater temp
2014-Apr-17 23:34N 66°34' E 012°58'2813.4
2014-Apr-17 21:26N 66°06' E 012°43'21 0.6
2014-Apr-16 09:32N 66°27' E 012°49'3 3.3
2014-Apr-16 08:29N 66°24' E 012°50'2 2.1
2014-Apr-16 07:31N 66°24' E 012°45'2 0.1
2014-Apr-15 15:34N 66°25' E 012°50'1111.4
2014-Apr-15 14:33N 66°22' E 012°22'9 4.6
2014-Apr-15 12:31N 66°23' E 012°45'9 0.2
2014-Apr-13 20:21N 66°30' E 012°59'16 8.2
2014-Apr-13 18:25N 66°16' E 012°42'1112.9
2014-Apr-13 17:33N 66°27' E 012°50'11 0.4
2014-Apr-12 16:14N 66°36' E 012°59'11 0.2
2014-Apr-10 18:34N 66°26' E 012°59'20 9.4
2014-Apr-10 16:26N 66°07' E 012°40'1517.1
2014-Apr-10 15:32N 66°23' E 012°40'1515.1
2014-Apr-10 14:34N 66°28' E 012°06'1312.7
2014-Apr-10 13:33N 66°36' E 012°32'12 3.0
2014-Apr-10 09:25N 66°31' E 013°00'3 0.1
2014-Apr-09 11:20N 66°29' E 012°55'1619.3
2014-Apr-09 10:31N 66°14' E 012°40'4 1.2
2014-Apr-09 07:34N 66°17' E 012°45'8 8.2
2014-Apr-09 06:33N 66°25' E 012°50'7 0.4
2014-Apr-08 11:30N 66°31' E 012°60'1313.2
2014-Apr-08 10:32N 66°22' E 012°37'14 6.2
2014-Apr-08 08:15N 66°36' E 012°41'  

Dump ship's entire track history

sailing weather and tide predictions

Eyr Myken — LCQU — position and weather